createdAt,value
2019-03-21T00:01:52.838Z,28.67
2019-03-21T00:04:33.483Z,31.47
2019-03-21T00:07:02.123Z,36.57
2019-03-21T00:10:09.360Z,30.43
2019-03-21T00:12:56.988Z,34.27
2019-03-21T00:18:40.229Z,33.70
2019-03-21T00:21:08.687Z,34.87
2019-03-21T00:23:56.510Z,35.50
2019-03-21T00:26:38.143Z,32.47
2019-03-21T00:29:06.769Z,31.67
2019-03-21T00:31:35.264Z,32.53
2019-03-21T00:34:23.101Z,35.30
2019-03-21T00:37:04.148Z,34.53
2019-03-21T00:39:44.785Z,39.43
2019-03-21T00:42:13.357Z,38.10
2019-03-21T00:45:01.181Z,38.33
2019-03-21T00:47:43.690Z,36.80
2019-03-21T00:50:24.270Z,39.90
2019-03-21T00:53:05.019Z,41.30
2019-03-21T00:55:45.754Z,39.17
2019-03-21T00:58:26.478Z,37.87
2019-03-21T01:01:07.371Z,42.43
2019-03-21T01:03:48.140Z,39.53
2019-03-21T01:06:29.149Z,42.10
2019-03-21T01:09:10.236Z,42.13
2019-03-21T01:11:50.858Z,42.70
2019-03-21T01:14:31.440Z,45.17
2019-03-21T01:17:12.309Z,42.20
2019-03-21T01:19:52.786Z,42.83
2019-03-21T01:22:34.925Z,45.10
2019-03-21T01:25:15.262Z,42.53
2019-03-21T01:27:55.807Z,45.13
2019-03-21T01:30:38.197Z,42.53
2019-03-21T01:33:19.339Z,40.33
2019-03-21T01:36:00.320Z,44.03
2019-03-21T01:38:40.642Z,42.10
2019-03-21T01:47:03.901Z,47.43
2019-03-21T01:52:36.877Z,47.07
2019-03-21T01:55:17.143Z,52.60
2019-03-21T01:57:59.308Z,47.07
2019-03-21T02:00:41.381Z,54.13
2019-03-21T02:03:22.253Z,45.50
2019-03-21T02:06:03.105Z,47.60
2019-03-21T02:08:44.608Z,45.40
2019-03-21T02:11:25.350Z,43.47
2019-03-21T02:14:06.892Z,53.47
2019-03-21T02:16:47.338Z,45.60
2019-03-21T02:19:28.420Z,48.40
2019-03-21T02:22:09.388Z,41.63
2019-03-21T02:24:54.511Z,45.93
2019-03-21T02:27:36.371Z,53.00
2019-03-21T02:30:18.536Z,50.63
2019-03-21T02:32:59.644Z,54.13
2019-03-21T02:35:41.276Z,57.33
2019-03-21T02:38:22.534Z,57.87
2019-03-21T02:41:04.239Z,43.77
2019-03-21T02:43:45.500Z,44.67
2019-03-21T02:46:26.409Z,47.27
2019-03-21T02:52:05.104Z,56.17
2019-03-21T02:54:45.757Z,56.43
2019-03-21T02:57:26.809Z,64.07
2019-03-21T03:00:07.910Z,47.00
2019-03-21T03:02:48.608Z,50.43
2019-03-21T03:05:29.504Z,56.90
2019-03-21T03:07:58.438Z,47.50
2019-03-21T03:11:05.892Z,46.07
2019-03-21T03:13:54.034Z,54.00
2019-03-21T03:16:35.352Z,46.77
2019-03-21T03:19:17.258Z,45.33
2019-03-21T03:21:58.578Z,44.33
2019-03-21T03:24:39.405Z,48.43
2019-03-21T03:27:20.498Z,48.80
2019-03-21T03:30:01.302Z,58.77
2019-03-21T03:32:42.590Z,52.17
2019-03-21T03:35:23.478Z,48.67
2019-03-21T03:38:04.040Z,45.03
2019-03-21T03:40:46.095Z,43.73
2019-03-21T03:43:27.022Z,22.17
2019-03-21T03:46:08.688Z,20.97
2019-03-21T03:48:49.303Z,29.00
2019-03-21T03:51:17.855Z,26.10
2019-03-21T03:54:06.292Z,32.77
2019-03-21T03:56:46.927Z,38.63
2019-03-21T03:59:27.685Z,35.43
2019-03-21T04:02:09.038Z,55.17
2019-03-21T04:04:49.881Z,49.73
2019-03-21T04:07:30.812Z,54.27
2019-03-21T04:10:11.732Z,46.07
2019-03-21T04:12:52.528Z,43.23
2019-03-21T04:15:33.247Z,35.67
2019-03-21T04:18:14.305Z,44.27
2019-03-21T04:20:56.416Z,39.83
2019-03-21T04:29:18.439Z,27.73
2019-03-21T04:31:58.965Z,24.37
2019-03-21T04:34:39.685Z,27.27
2019-03-21T04:37:20.794Z,28.40
2019-03-21T04:40:01.604Z,28.57
2019-03-21T04:42:42.639Z,30.83
2019-03-21T04:45:23.263Z,28.80
2019-03-21T04:48:04.086Z,30.37
2019-03-21T04:50:45.082Z,29.67
2019-03-21T04:53:25.601Z,34.03
2019-03-21T04:56:05.982Z,38.60
2019-03-21T04:58:46.860Z,44.73
2019-03-21T05:01:27.920Z,39.67
2019-03-21T05:04:08.528Z,55.23
2019-03-21T05:06:49.389Z,100.73
2019-03-21T05:09:30.185Z,36.00
2019-03-21T05:12:11.134Z,37.77
2019-03-21T05:14:51.622Z,37.90
2019-03-21T05:17:32.325Z,37.57
2019-03-21T05:20:14.363Z,32.13
2019-03-21T05:22:55.428Z,35.10
2019-03-21T05:25:36.056Z,29.20
2019-03-21T05:28:16.933Z,30.00
2019-03-21T05:31:06.318Z,31.77
2019-03-21T05:33:34.809Z,36.50
2019-03-21T05:36:22.649Z,38.40
2019-03-21T05:39:11.025Z,52.17
2019-03-21T05:41:51.967Z,42.67
2019-03-21T05:44:41.127Z,40.27
2019-03-21T05:47:09.633Z,56.67
2019-03-21T05:49:38.192Z,61.17
2019-03-21T05:52:26.072Z,54.90
2019-03-21T06:03:46.985Z,76.83
2019-03-21T06:06:54.121Z,47.83
2019-03-21T06:10:02.666Z,85.73
2019-03-21T06:12:43.886Z,77.50
2019-03-21T06:18:34.294Z,63.37
2019-03-21T06:24:29.173Z,45.33
2019-03-21T06:27:14.559Z,54.90
2019-03-21T06:29:52.863Z,49.93
2019-03-21T06:32:21.393Z,49.80
2019-03-21T06:35:29.928Z,45.93
2019-03-21T06:38:17.793Z,50.57
2019-03-21T06:40:58.563Z,48.83
2019-03-21T06:43:39.836Z,36.63
2019-03-21T06:46:23.919Z,36.40
2019-03-21T06:49:04.340Z,38.97
2019-03-21T06:54:59.770Z,38.80
2019-03-21T06:57:40.245Z,43.73
2019-03-21T07:00:20.791Z,40.40
2019-03-21T07:06:03.747Z,41.33
2019-03-21T07:08:44.184Z,35.27
2019-03-21T07:11:13.236Z,39.17
2019-03-21T07:14:02.845Z,41.10
2019-03-21T07:16:44.029Z,38.50
2019-03-21T07:19:25.052Z,38.47
2019-03-21T07:22:05.431Z,38.67
2019-03-21T07:24:33.893Z,41.40
2019-03-21T07:27:21.738Z,41.87
2019-03-21T07:30:29.346Z,47.07
2019-03-21T07:33:11.035Z,42.83
2019-03-21T07:38:21.836Z,50.13
2019-03-21T07:41:09.773Z,45.17
2019-03-21T07:43:50.339Z,44.07
2019-03-21T07:46:32.097Z,46.47
2019-03-21T07:49:12.811Z,45.30
2019-03-21T07:51:41.432Z,48.63
2019-03-21T07:54:29.295Z,45.37
2019-03-21T07:56:58.419Z,46.37
2019-03-21T07:59:46.312Z,45.43
2019-03-21T08:02:27.441Z,45.10
2019-03-21T08:05:08.215Z,54.95
2019-03-21T08:07:49.110Z,49.47
2019-03-21T08:10:17.696Z,58.07
2019-03-21T08:12:46.161Z,47.10
2019-03-21T08:15:37.843Z,49.67
2019-03-21T08:18:06.797Z,55.33
2019-03-21T08:21:13.789Z,48.23
2019-03-21T08:23:55.165Z,53.40
2019-03-21T08:26:36.129Z,52.13
2019-03-21T08:29:17.517Z,44.87
2019-03-21T08:31:58.013Z,49.73
2019-03-21T08:34:38.572Z,53.23
2019-03-21T08:37:19.245Z,57.13
2019-03-21T08:39:47.803Z,59.37
2019-03-21T08:42:35.817Z,65.27
2019-03-21T08:45:23.652Z,62.10
2019-03-21T08:48:04.860Z,71.60
2019-03-21T08:50:45.601Z,70.73
2019-03-21T08:53:26.305Z,59.47
2019-03-21T08:56:06.951Z,59.77
2019-03-21T08:58:47.874Z,55.17
2019-03-21T09:01:16.343Z,57.57
2019-03-21T09:04:04.438Z,59.80
2019-03-21T09:06:45.471Z,55.47
2019-03-21T09:09:24.673Z,54.70
2019-03-21T09:12:12.605Z,51.47
2019-03-21T09:14:54.627Z,49.40
2019-03-21T09:17:35.313Z,44.47
2019-03-21T09:20:24.746Z,50.03
2019-03-21T09:23:12.938Z,46.03
2019-03-21T09:25:54.009Z,42.33
2019-03-21T09:28:23.213Z,42.80
2019-03-21T09:30:51.690Z,43.20
2019-03-21T09:33:39.530Z,44.67
2019-03-21T09:36:27.795Z,39.77
2019-03-21T09:39:08.342Z,39.50
2019-03-21T09:41:50.968Z,43.63
2019-03-21T09:44:52.978Z,44.97
2019-03-21T09:47:24.696Z,39.37
2019-03-21T09:52:37.535Z,40.77
2019-03-21T09:55:25.419Z,38.23
2019-03-21T09:58:05.771Z,38.53
2019-03-21T10:00:46.373Z,37.30
2019-03-21T10:03:14.878Z,37.03
2019-03-21T10:06:02.821Z,38.03
2019-03-21T10:08:43.154Z,31.87
2019-03-21T10:11:11.672Z,33.63
2019-03-21T10:13:59.229Z,33.17
2019-03-21T10:17:00.806Z,33.77
2019-03-21T10:19:30.015Z,34.27
2019-03-21T10:21:58.634Z,32.10
2019-03-21T10:24:46.565Z,32.80
2019-03-21T10:27:15.035Z,32.83
2019-03-21T10:30:03.699Z,36.03
2019-03-21T10:32:44.219Z,38.33
2019-03-21T10:35:25.403Z,34.10
2019-03-21T10:37:53.883Z,35.00
2019-03-21T10:40:42.091Z,35.87
2019-03-21T10:43:30.210Z,37.97
2019-03-21T10:46:11.559Z,38.17
2019-03-21T10:48:52.527Z,32.77
2019-03-21T10:51:33.907Z,34.67
2019-03-21T10:54:14.758Z,34.13
2019-03-21T10:56:55.411Z,34.37
2019-03-21T10:59:36.281Z,35.43
2019-03-21T11:02:16.993Z,36.83
2019-03-21T11:05:20.224Z,30.87
2019-03-21T11:07:55.978Z,33.03
2019-03-21T11:10:43.849Z,36.20
2019-03-21T11:13:25.204Z,42.23
2019-03-21T11:15:53.841Z,42.00
2019-03-21T11:18:42.073Z,38.80
2019-03-21T11:21:30.575Z,38.07
2019-03-21T11:24:18.487Z,37.73
2019-03-21T11:26:59.159Z,41.10
2019-03-21T11:29:41.059Z,43.47
2019-03-21T11:32:21.576Z,40.57
2019-03-21T11:35:02.164Z,39.20
2019-03-21T11:37:42.897Z,46.13
2019-03-21T11:40:23.984Z,43.20
2019-03-21T11:43:05.814Z,41.50
2019-03-21T11:45:47.762Z,45.00
2019-03-21T11:54:33.345Z,46.53
2019-03-21T11:57:13.902Z,43.83
2019-03-21T11:59:54.719Z,43.77
2019-03-21T12:02:35.785Z,46.93
2019-03-21T12:05:16.797Z,50.90
2019-03-21T12:07:57.874Z,42.13
2019-03-21T12:10:39.156Z,43.37
2019-03-21T12:13:19.842Z,45.57
2019-03-21T12:16:00.590Z,44.70
2019-03-21T12:18:41.709Z,44.20
2019-03-21T12:21:22.909Z,45.30
2019-03-21T12:24:05.054Z,42.63
2019-03-21T12:26:46.055Z,44.93
2019-03-21T12:34:44.953Z,41.47
2019-03-21T12:37:32.925Z,40.93
2019-03-21T12:40:13.162Z,39.87
2019-03-21T12:42:53.765Z,40.23
2019-03-21T12:45:35.427Z,40.07
2019-03-21T12:48:16.282Z,40.27
2019-03-21T12:50:57.106Z,36.87
2019-03-21T12:53:38.236Z,37.80
2019-03-21T12:56:19.247Z,37.33
2019-03-21T12:59:00.211Z,36.63
2019-03-21T13:01:40.999Z,35.60
2019-03-21T13:04:21.986Z,34.83
2019-03-21T13:07:02.981Z,33.10
2019-03-21T13:09:43.831Z,33.10
2019-03-21T13:12:25.117Z,47.80
2019-03-21T13:15:05.985Z,27.70
2019-03-21T13:17:46.877Z,29.37
2019-03-21T13:20:15.928Z,35.73
2019-03-21T13:22:52.607Z,36.97
2019-03-21T13:25:33.926Z,33.70
2019-03-21T13:28:21.821Z,27.83
2019-03-21T13:31:02.266Z,27.80
2019-03-21T13:33:43.175Z,27.93
2019-03-21T13:36:23.744Z,28.77
2019-03-21T13:38:52.308Z,26.87
2019-03-21T13:44:40.385Z,26.80
2019-03-21T13:47:08.880Z,25.57
2019-03-21T13:49:56.843Z,27.83
2019-03-21T13:52:37.877Z,28.27
2019-03-21T13:55:18.682Z,25.43
2019-03-21T13:57:59.716Z,25.80
2019-03-21T14:00:41.151Z,27.10
2019-03-21T14:03:25.295Z,26.17
2019-03-21T14:06:05.311Z,25.03
2019-03-21T14:08:46.096Z,29.73
2019-03-21T14:11:26.865Z,26.87
2019-03-21T14:14:07.915Z,25.63
2019-03-21T14:16:50.859Z,26.33
2019-03-21T14:19:31.028Z,26.33
2019-03-21T14:22:12.740Z,25.77
2019-03-21T14:24:53.099Z,29.00
2019-03-21T14:27:33.747Z,26.80
2019-03-21T14:30:15.963Z,26.23
2019-03-21T14:32:56.430Z,25.53
2019-03-21T14:35:37.440Z,26.30
2019-03-21T14:38:26.378Z,26.03
2019-03-21T14:41:00.961Z,26.83
2019-03-21T14:43:41.595Z,25.73
2019-03-21T14:46:22.405Z,25.83
2019-03-21T14:49:04.569Z,26.07
2019-03-21T14:51:45.352Z,24.23
2019-03-21T14:54:25.927Z,25.83
2019-03-21T14:57:06.399Z,25.30
2019-03-21T14:59:47.968Z,25.47
2019-03-21T15:02:16.977Z,30.70
2019-03-21T15:08:00.535Z,23.57
2019-03-21T15:10:48.504Z,25.53
2019-03-21T15:13:30.659Z,30.30
2019-03-21T15:16:11.409Z,27.17
2019-03-21T15:18:52.212Z,25.37
2019-03-21T15:21:32.770Z,26.90
2019-03-21T15:24:15.119Z,27.67
2019-03-21T15:26:56.688Z,28.67
2019-03-21T15:29:37.947Z,25.27
2019-03-21T15:32:18.997Z,27.33
2019-03-21T15:35:00.552Z,26.60
2019-03-21T15:37:41.711Z,27.30
2019-03-21T15:46:23.931Z,29.50
2019-03-21T15:49:05.132Z,27.53
2019-03-21T15:54:36.866Z,27.10
2019-03-21T15:57:05.342Z,26.97
2019-03-21T15:59:53.175Z,24.90
2019-03-21T16:02:41.019Z,27.47
2019-03-21T16:05:09.718Z,30.23
2019-03-21T16:07:57.535Z,25.83
2019-03-21T16:10:45.376Z,30.23
2019-03-21T16:16:22.013Z,25.60
2019-03-21T16:19:03.771Z,27.20
2019-03-21T16:21:44.171Z,25.80
2019-03-21T16:24:24.891Z,27.10
2019-03-21T16:27:05.752Z,29.57
2019-03-21T16:29:46.353Z,28.53
2019-03-21T16:32:27.211Z,26.47
2019-03-21T16:35:08.926Z,29.47
2019-03-21T16:37:55.115Z,30.77
2019-03-21T16:40:23.673Z,28.67
2019-03-21T16:43:11.543Z,30.30
2019-03-21T16:45:55.841Z,26.20
2019-03-21T16:48:24.379Z,26.97
2019-03-21T16:51:12.215Z,29.13
2019-03-21T16:54:00.170Z,27.03
2019-03-21T16:56:41.080Z,28.67
2019-03-21T16:59:22.961Z,29.57
2019-03-21T17:01:51.446Z,29.77
2019-03-21T17:04:39.322Z,29.80
2019-03-21T17:07:20.153Z,32.23
2019-03-21T17:10:01.033Z,29.30
2019-03-21T17:12:46.564Z,26.27
2019-03-21T17:15:31.457Z,31.30
2019-03-21T17:18:12.227Z,29.53
2019-03-21T17:20:53.003Z,26.90
2019-03-21T17:23:33.531Z,27.70
2019-03-21T17:26:02.791Z,29.77
2019-03-21T17:28:50.917Z,26.43
2019-03-21T17:31:38.736Z,32.50
2019-03-21T17:34:19.064Z,30.23
2019-03-21T17:40:13.235Z,32.60
2019-03-21T17:42:41.774Z,31.70
2019-03-21T17:45:31.473Z,32.57
2019-03-21T17:48:19.295Z,30.63
2019-03-21T17:51:00.387Z,36.87
2019-03-21T17:53:40.897Z,34.03
2019-03-21T17:59:26.196Z,33.43
2019-03-21T18:02:08.805Z,34.70
2019-03-21T18:04:50.029Z,38.93
2019-03-21T18:07:32.923Z,38.27
2019-03-21T18:10:13.328Z,35.57
2019-03-21T18:15:39.237Z,35.33
2019-03-21T18:18:19.944Z,38.03
2019-03-21T18:21:00.507Z,34.33
2019-03-21T18:23:41.515Z,37.17
2019-03-21T18:26:22.521Z,35.90
2019-03-21T18:28:51.014Z,37.23
2019-03-21T18:31:39.233Z,39.33
2019-03-21T18:34:07.799Z,36.80
2019-03-21T18:36:49.822Z,41.70
2019-03-21T18:42:19.030Z,39.73
2019-03-21T18:48:18.023Z,38.33
2019-03-21T18:50:59.206Z,41.57
2019-03-21T18:53:42.850Z,39.23
2019-03-21T18:56:23.149Z,38.60
2019-03-21T18:59:04.800Z,42.30
2019-03-21T19:01:58.041Z,38.53
2019-03-21T19:04:28.599Z,40.50
2019-03-21T19:07:09.700Z,43.13
2019-03-21T19:09:57.503Z,42.57
2019-03-21T19:12:26.167Z,44.50
2019-03-21T19:18:00.116Z,43.93
2019-03-21T19:20:28.595Z,39.63
2019-03-21T19:26:24.597Z,40.23
2019-03-21T19:29:11.434Z,41.97
2019-03-21T19:31:52.390Z,41.37
2019-03-21T19:34:34.419Z,46.03
2019-03-21T19:37:02.974Z,41.07
2019-03-21T19:39:51.023Z,41.47
2019-03-21T19:42:32.462Z,41.07
2019-03-21T19:45:13.713Z,43.07
2019-03-21T19:47:42.255Z,40.20
2019-03-21T19:50:42.596Z,43.23
2019-03-21T19:53:12.334Z,42.50
2019-03-21T19:55:52.672Z,42.47
2019-03-21T19:58:33.490Z,46.60
2019-03-21T20:03:58.597Z,44.63
2019-03-21T20:06:39.609Z,44.93
2019-03-21T20:09:20.832Z,47.40
2019-03-21T20:14:50.180Z,46.47
2019-03-21T20:17:31.044Z,46.43
2019-03-21T20:20:13.288Z,46.70
2019-03-21T20:22:54.052Z,44.97
2019-03-21T20:25:42.915Z,47.23
2019-03-21T20:30:59.821Z,44.17
2019-03-21T20:33:40.597Z,46.50
2019-03-21T20:36:23.896Z,45.83
2019-03-21T20:39:04.980Z,45.37
2019-03-21T20:41:46.636Z,43.53
2019-03-21T20:47:29.808Z,49.50
2019-03-21T20:50:18.097Z,44.63
2019-03-21T20:52:59.567Z,44.57
2019-03-21T20:55:28.026Z,47.83
2019-03-21T20:57:56.557Z,49.90
2019-03-21T21:00:44.398Z,46.67
2019-03-21T21:03:32.244Z,46.80
2019-03-21T21:06:12.870Z,48.37
2019-03-21T21:08:53.494Z,47.37
2019-03-21T21:11:36.598Z,46.70
2019-03-21T21:14:16.832Z,51.17
2019-03-21T21:16:58.585Z,47.93
2019-03-21T21:25:39.340Z,50.53
2019-03-21T21:28:20.404Z,52.47
2019-03-21T21:31:01.462Z,45.93
2019-03-21T21:33:42.466Z,56.17
2019-03-21T21:36:23.210Z,48.73
2019-03-21T21:38:51.704Z,51.47
2019-03-21T21:41:39.501Z,47.97
2019-03-21T21:44:20.689Z,49.80
2019-03-21T21:46:49.167Z,46.27
2019-03-21T21:49:37.720Z,50.87
2019-03-21T21:52:25.525Z,48.47
2019-03-21T21:55:06.617Z,53.10
2019-03-21T21:57:47.493Z,48.70
2019-03-21T22:00:28.431Z,54.23
2019-03-21T22:03:09.429Z,51.17
2019-03-21T22:05:51.313Z,51.83
2019-03-21T22:08:32.456Z,54.07
2019-03-21T22:11:13.300Z,54.27
2019-03-21T22:13:54.191Z,57.37
2019-03-21T22:16:35.295Z,56.43
2019-03-21T22:19:16.100Z,55.83
2019-03-21T22:21:56.960Z,52.80
2019-03-21T22:24:37.713Z,52.00
2019-03-21T22:27:18.153Z,55.30
2019-03-21T22:29:59.064Z,49.13
2019-03-21T22:32:28.122Z,48.80
2019-03-21T22:34:56.628Z,55.17
2019-03-21T22:37:25.115Z,56.40
2019-03-21T22:40:13.569Z,56.20
2019-03-21T22:42:54.301Z,52.53
2019-03-21T22:45:34.945Z,54.87
2019-03-21T22:48:15.773Z,53.67
2019-03-21T22:50:56.676Z,50.23
2019-03-21T22:53:25.215Z,49.93
2019-03-21T22:56:13.030Z,53.17
2019-03-21T22:58:53.387Z,56.10
2019-03-21T23:01:34.320Z,56.73
2019-03-21T23:04:14.871Z,55.43
2019-03-21T23:06:55.777Z,51.70
2019-03-21T23:09:36.695Z,52.60
2019-03-21T23:12:17.723Z,55.60
2019-03-21T23:14:58.310Z,53.37
2019-03-21T23:17:38.812Z,55.53
2019-03-21T23:20:19.816Z,54.93
2019-03-21T23:23:09.512Z,56.03
2019-03-21T23:25:57.325Z,52.50
2019-03-21T23:28:38.998Z,56.67
2019-03-21T23:31:20.756Z,63.13
2019-03-21T23:34:01.307Z,56.27
2019-03-21T23:36:44.777Z,58.83
2019-03-21T23:39:25.653Z,58.20
2019-03-21T23:42:07.792Z,59.57
2019-03-21T23:44:48.579Z,59.90
2019-03-21T23:47:29.587Z,56.23
2019-03-21T23:50:10.170Z,62.03
2019-03-21T23:52:51.023Z,59.77
2019-03-21T23:55:31.570Z,58.23
2019-03-21T23:58:12.362Z,60.20
